N61557 KBOI-KBOI
Flight info
| Callsign | N61557 |
|---|---|
| Flight time | 0h 25m |
| Altitude | |
| Route | PATTERN |
| Aircraft | C172/L-DOV/C |
Departure
| Time | 2026-05-06 00:14 |
|---|---|
| Airport | Boise Air Terminal/Gowen Field (KBOI) |
Arrival
| Time | 2026-05-06 00:39 |
|---|---|
| Airport | Boise Air Terminal/Gowen Field (KBOI) |
| Time | Latitude | Longitude | Altitude | Speed | Heading |
|---|---|---|---|---|---|
| 2026-05-06 00:00 | 43.56848 | -116.22820 | 2876 ft | 6 kts | 117° |
| 2026-05-06 00:00 | 43.56823 | -116.22762 | 2876 ft | 11 kts | 123° |
| 2026-05-06 00:00 | 43.56790 | -116.22647 | 2876 ft | 10 kts | 128° |
| 2026-05-06 00:00 | 43.56757 | -116.22572 | 2876 ft | 8 kts | 104° |
| 2026-05-06 00:01 | 43.56755 | -116.22545 | 2876 ft | 0 kts | 103° |
| 2026-05-06 00:01 | 43.56728 | -116.22480 | 2876 ft | 16 kts | 115° |
| 2026-05-06 00:01 | 43.56682 | -116.22337 | 2876 ft | 14 kts | 110° |
| 2026-05-06 00:02 | 43.56646 | -116.22239 | 2876 ft | 9 kts | 116° |
| 2026-05-06 00:02 | 43.56624 | -116.22174 | 2876 ft | 6 kts | 116° |
| 2026-05-06 00:02 | 43.56598 | -116.22099 | 2876 ft | 13 kts | 116° |
| 2026-05-06 00:02 | 43.56564 | -116.22000 | 2876 ft | 10 kts | 116° |
| 2026-05-06 00:03 | 43.56539 | -116.21928 | 2876 ft | 7 kts | 116° |
| 2026-05-06 00:03 | 43.56504 | -116.21828 | 2876 ft | 16 kts | 115° |
| 2026-05-06 00:03 | 43.56464 | -116.21709 | 2876 ft | 12 kts | 115° |
| 2026-05-06 00:03 | 43.56436 | -116.21624 | 2876 ft | 8 kts | 116° |
| 2026-05-06 00:04 | 43.56414 | -116.21560 | 2876 ft | 10 kts | 115° |
| 2026-05-06 00:04 | 43.56376 | -116.21450 | 2876 ft | 13 kts | 115° |
| 2026-05-06 00:04 | 43.56345 | -116.21360 | 2877 ft | 8 kts | 117° |
| 2026-05-06 00:04 | 43.56321 | -116.21291 | 2877 ft | 12 kts | 115° |
| 2026-05-06 00:05 | 43.56257 | -116.21102 | 2877 ft | 8 kts | 115° |
| 2026-05-06 00:05 | 43.56229 | -116.21018 | 2877 ft | 11 kts | 115° |
| 2026-05-06 00:05 | 43.56198 | -116.20924 | 2877 ft | 9 kts | 109° |
| 2026-05-06 00:06 | 43.56171 | -116.20864 | 2876 ft | 7 kts | 148° |
| 2026-05-06 00:06 | 43.56147 | -116.20865 | 2877 ft | 0 kts | 205° |
| 2026-05-06 00:06 | 43.56140 | -116.20870 | 2877 ft | 6 kts | 209° |
| 2026-05-06 00:07 | 43.56083 | -116.20905 | 2877 ft | 11 kts | 203° |
| 2026-05-06 00:07 | 43.56032 | -116.20941 | 2876 ft | 2 kts | 216° |
| 2026-05-06 00:07 | 43.56028 | -116.20943 | 2876 ft | 4 kts | 201° |
| 2026-05-06 00:07 | 43.55985 | -116.20968 | 2876 ft | 4 kts | 203° |
| 2026-05-06 00:08 | 43.55978 | -116.20972 | 2876 ft | 0 kts | 204° |
| 2026-05-06 00:08 | 43.55970 | -116.20977 | 2876 ft | 0 kts | 199° |
| 2026-05-06 00:11 | 43.55968 | -116.20978 | 2876 ft | 3 kts | 212° |
| 2026-05-06 00:11 | 43.55924 | -116.21026 | 2876 ft | 16 kts | 239° |
| 2026-05-06 00:12 | 43.55922 | -116.21091 | 2876 ft | 0 kts | 296° |
| 2026-05-06 00:12 | 43.55923 | -116.21093 | 2876 ft | 5 kts | 300° |
| 2026-05-06 00:12 | 43.56001 | -116.21310 | 2877 ft | 44 kts | 293° |
| 2026-05-06 00:13 | 43.56110 | -116.21804 | 2934 ft | 61 kts | 298° |
| 2026-05-06 00:13 | 43.56310 | -116.22297 | 3065 ft | 57 kts | 316° |
| 2026-05-06 00:13 | 43.56490 | -116.22788 | 3182 ft | 59 kts | 301° |
| 2026-05-06 00:13 | 43.56655 | -116.23339 | 3236 ft | 71 kts | 305° |
| 2026-05-06 00:14 | 43.56880 | -116.23956 | 3408 ft | 74 kts | 303° |
| 2026-05-06 00:14 | 43.57058 | -116.24635 | 3582 ft | 75 kts | 301° |
| 2026-05-06 00:14 | 43.57286 | -116.25307 | 3722 ft | 74 kts | 307° |
| 2026-05-06 00:14 | 43.57531 | -116.25954 | 3883 ft | 76 kts | 303° |
| 2026-05-06 00:15 | 43.57796 | -116.26570 | 4041 ft | 72 kts | 315° |
| 2026-05-06 00:15 | 43.58077 | -116.27108 | 4102 ft | 80 kts | 310° |
| 2026-05-06 00:15 | 43.58421 | -116.27829 | 4095 ft | 93 kts | 307° |
| 2026-05-06 00:15 | 43.58531 | -116.28643 | 4328 ft | 101 kts | 250° |
| 2026-05-06 00:16 | 43.57791 | -116.29068 | 4355 ft | 127 kts | 187° |
| 2026-05-06 00:16 | 43.56873 | -116.28961 | 4327 ft | 139 kts | 172° |
| 2026-05-06 00:16 | 43.56229 | -116.28207 | 4555 ft | 121 kts | 104° |
| 2026-05-06 00:16 | 43.55986 | -116.26991 | 4408 ft | 138 kts | 92° |
| 2026-05-06 00:17 | 43.55751 | -116.25660 | 4234 ft | 147 kts | 112° |
| 2026-05-06 00:17 | 43.55279 | -116.24476 | 4304 ft | 139 kts | 113° |
| 2026-05-06 00:17 | 43.54770 | -116.23329 | 4336 ft | 140 kts | 118° |
| 2026-05-06 00:17 | 43.54239 | -116.22267 | 4344 ft | 135 kts | 116° |
| 2026-05-06 00:18 | 43.53730 | -116.21178 | 4306 ft | 136 kts | 119° |
| 2026-05-06 00:18 | 43.53298 | -116.20094 | 4378 ft | 115 kts | 91° |
| 2026-05-06 00:18 | 43.53577 | -116.19307 | 4388 ft | 87 kts | 5° |
| 2026-05-06 00:18 | 43.53841 | -116.19919 | 4236 ft | 96 kts | 274° |
| 2026-05-06 00:19 | 43.53715 | -116.20853 | 4228 ft | 100 kts | 240° |
| 2026-05-06 00:19 | 43.53174 | -116.20572 | 4238 ft | 109 kts | 89° |
| 2026-05-06 00:19 | 43.53502 | -116.19886 | 4311 ft | 79 kts | 359° |
| 2026-05-06 00:19 | 43.53879 | -116.20329 | 4332 ft | 84 kts | 294° |
| 2026-05-06 00:20 | 43.53626 | -116.21051 | 4464 ft | 109 kts | 197° |
| 2026-05-06 00:20 | 43.52938 | -116.20601 | 4543 ft | 115 kts | 118° |
| 2026-05-06 00:20 | 43.52743 | -116.19540 | 4466 ft | 121 kts | 92° |
| 2026-05-06 00:20 | 43.52697 | -116.18358 | 4372 ft | 126 kts | 80° |
| 2026-05-06 00:21 | 43.53085 | -116.17540 | 4385 ft | 91 kts | 9° |
| 2026-05-06 00:21 | 43.53721 | -116.17581 | 4085 ft | 100 kts | 348° |
| 2026-05-06 00:21 | 43.54366 | -116.17899 | 3930 ft | 97 kts | 327° |
| 2026-05-06 00:21 | 43.54851 | -116.18575 | 3655 ft | 100 kts | 317° |
| 2026-05-06 00:22 | 43.55278 | -116.19298 | 3420 ft | 91 kts | 310° |
| 2026-05-06 00:22 | 43.55545 | -116.19994 | 3142 ft | 72 kts | 303° |
| 2026-05-06 00:22 | 43.55745 | -116.20593 | 2979 ft | 68 kts | 306° |
| 2026-05-06 00:22 | 43.55920 | -116.21183 | 2957 ft | 68 kts | 297° |
| 2026-05-06 00:23 | 43.56081 | -116.21760 | 3154 ft | 60 kts | 297° |
| 2026-05-06 00:23 | 43.56219 | -116.22295 | 3313 ft | 62 kts | 301° |
| 2026-05-06 00:23 | 43.56367 | -116.22873 | 3426 ft | 67 kts | 309° |
| 2026-05-06 00:23 | 43.56601 | -116.23433 | 3563 ft | 69 kts | 308° |
| 2026-05-06 00:24 | 43.56898 | -116.23975 | 3665 ft | 70 kts | 319° |
| 2026-05-06 00:24 | 43.57176 | -116.24437 | 3903 ft | 56 kts | 322° |
| 2026-05-06 00:24 | 43.57383 | -116.24680 | 3970 ft | 62 kts | 324° |
| 2026-05-06 00:24 | 43.57636 | -116.25152 | 4126 ft | 70 kts | 306° |
| 2026-05-06 00:25 | 43.57897 | -116.25784 | 4232 ft | 79 kts | 309° |
| 2026-05-06 00:25 | 43.58185 | -116.26411 | 4382 ft | 79 kts | 307° |
| 2026-05-06 00:25 | 43.58475 | -116.27053 | 4533 ft | 78 kts | 308° |
| 2026-05-06 00:25 | 43.58743 | -116.27668 | 4722 ft | 72 kts | 304° |
| 2026-05-06 00:26 | 43.58929 | -116.28337 | 4844 ft | 78 kts | 300° |
| 2026-05-06 00:26 | 43.59002 | -116.29057 | 4999 ft | 89 kts | 242° |
| 2026-05-06 00:26 | 43.58325 | -116.29321 | 4967 ft | 117 kts | 186° |
| 2026-05-06 00:26 | 43.57479 | -116.29505 | 4765 ft | 123 kts | 203° |
| 2026-05-06 00:27 | 43.56721 | -116.29863 | 4567 ft | 110 kts | 190° |
| 2026-05-06 00:27 | 43.56102 | -116.29387 | 4387 ft | 108 kts | 112° |
| 2026-05-06 00:27 | 43.55811 | -116.28470 | 4227 ft | 105 kts | 108° |
| 2026-05-06 00:27 | 43.55494 | -116.27626 | 4130 ft | 96 kts | 112° |
| 2026-05-06 00:28 | 43.55165 | -116.26838 | 3971 ft | 94 kts | 101° |
| 2026-05-06 00:28 | 43.55019 | -116.26023 | 3816 ft | 89 kts | 94° |
| 2026-05-06 00:28 | 43.54865 | -116.25187 | 3657 ft | 90 kts | 91° |
| 2026-05-06 00:28 | 43.54674 | -116.24332 | 3400 ft | 102 kts | 103° |
| 2026-05-06 00:29 | 43.54527 | -116.23389 | 3540 ft | 96 kts | 84° |
| 2026-05-06 00:29 | 43.54538 | -116.22493 | 3687 ft | 91 kts | 65° |
| 2026-05-06 00:29 | 43.54675 | -116.21640 | 3818 ft | 96 kts | 76° |
| 2026-05-06 00:29 | 43.54383 | -116.20747 | 3909 ft | 110 kts | 141° |
| 2026-05-06 00:30 | 43.53808 | -116.20083 | 4024 ft | 112 kts | 145° |
| 2026-05-06 00:30 | 43.53133 | -116.19469 | 4176 ft | 117 kts | 147° |
| 2026-05-06 00:30 | 43.52469 | -116.18763 | 4333 ft | 124 kts | 132° |
| 2026-05-06 00:30 | 43.52071 | -116.17743 | 4510 ft | 118 kts | 98° |
| 2026-05-06 00:31 | 43.51935 | -116.16658 | 4717 ft | 112 kts | 86° |
| 2026-05-06 00:31 | 43.51817 | -116.15529 | 4766 ft | 123 kts | 108° |
| 2026-05-06 00:31 | 43.51423 | -116.14472 | 4862 ft | 125 kts | 118° |
| 2026-05-06 00:31 | 43.51547 | -116.13527 | 4930 ft | 103 kts | 24° |
| 2026-05-06 00:32 | 43.52232 | -116.13529 | 4697 ft | 99 kts | 341° |
| 2026-05-06 00:32 | 43.52862 | -116.13823 | 4495 ft | 95 kts | 329° |
| 2026-05-06 00:32 | 43.53371 | -116.14408 | 4385 ft | 84 kts | 313° |
| 2026-05-06 00:32 | 43.53696 | -116.14962 | 4191 ft | 71 kts | 308° |
| 2026-05-06 00:33 | 43.53939 | -116.15534 | 4040 ft | 70 kts | 307° |
| 2026-05-06 00:33 | 43.54157 | -116.16113 | 3978 ft | 67 kts | 304° |
| 2026-05-06 00:33 | 43.54364 | -116.16670 | 3901 ft | 64 kts | 303° |
| 2026-05-06 00:33 | 43.54544 | -116.17236 | 3768 ft | 67 kts | 307° |
| 2026-05-06 00:34 | 43.54759 | -116.17818 | 3643 ft | 68 kts | 301° |
| 2026-05-06 00:34 | 43.54936 | -116.18408 | 3534 ft | 65 kts | 309° |
| 2026-05-06 00:34 | 43.55150 | -116.18946 | 3415 ft | 64 kts | 314° |
| 2026-05-06 00:34 | 43.55361 | -116.19516 | 3274 ft | 69 kts | 307° |
| 2026-05-06 00:35 | 43.55574 | -116.20077 | 3165 ft | 62 kts | 303° |
| 2026-05-06 00:35 | 43.55721 | -116.20635 | 3272 ft | 64 kts | 302° |
| 2026-05-06 00:35 | 43.55865 | -116.21270 | 3400 ft | 74 kts | 300° |
| 2026-05-06 00:35 | 43.56048 | -116.21975 | 3524 ft | 82 kts | 302° |
| 2026-05-06 00:36 | 43.56225 | -116.22682 | 3742 ft | 78 kts | 278° |
| 2026-05-06 00:36 | 43.55859 | -116.23302 | 3876 ft | 98 kts | 207° |
| 2026-05-06 00:36 | 43.55120 | -116.23423 | 3993 ft | 109 kts | 189° |
| 2026-05-06 00:36 | 43.54361 | -116.23372 | 4171 ft | 109 kts | 156° |
| 2026-05-06 00:37 | 43.53911 | -116.22587 | 4282 ft | 113 kts | 104° |
| 2026-05-06 00:37 | 43.53668 | -116.21468 | 4325 ft | 126 kts | 99° |
| 2026-05-06 00:37 | 43.53427 | -116.20291 | 4410 ft | 129 kts | 102° |
| 2026-05-06 00:37 | 43.53394 | -116.19128 | 4503 ft | 113 kts | 42° |
| 2026-05-06 00:38 | 43.53990 | -116.18710 | 4355 ft | 95 kts | 0° |
| 2026-05-06 00:38 | 43.54619 | -116.18786 | 4018 ft | 91 kts | 336° |
| 2026-05-06 00:38 | 43.55134 | -116.19307 | 3618 ft | 90 kts | 320° |
| 2026-05-06 00:38 | 43.55506 | -116.19966 | 3224 ft | 85 kts | 309° |
| 2026-05-06 00:39 | 43.55746 | -116.20605 | 3000 ft | 67 kts | 304° |
| 2026-05-06 00:39 | 43.55921 | -116.21124 | 2890 ft | 55 kts | 304° |
| 2026-05-06 00:39 | 43.56059 | -116.21519 | 2876 ft | 38 kts | 301° |
| 2026-05-06 00:39 | 43.56193 | -116.21896 | 2880 ft | 57 kts | 303° |
| 2026-05-06 00:40 | 43.56326 | -116.22377 | 3088 ft | 51 kts | 304° |
| 2026-05-06 00:40 | 43.56455 | -116.22864 | 3197 ft | 54 kts | 304° |
| 2026-05-06 00:40 | 43.56604 | -116.23389 | 3299 ft | 62 kts | 308° |
| 2026-05-06 00:40 | 43.56734 | -116.23965 | 3485 ft | 67 kts | 301° |
| 2026-05-06 00:41 | 43.56909 | -116.24629 | 3603 ft | 74 kts | 298° |
| 2026-05-06 00:41 | 43.57078 | -116.25277 | 3792 ft | 70 kts | 300° |
| 2026-05-06 00:41 | 43.57133 | -116.25956 | 3975 ft | 70 kts | 290° |
| 2026-05-06 00:41 | 43.56900 | -116.26590 | 4102 ft | 96 kts | 217° |
| 2026-05-06 00:42 | 43.56187 | -116.26619 | 4292 ft | 108 kts | 167° |
| 2026-05-06 00:42 | 43.55647 | -116.25979 | 4382 ft | 111 kts | 112° |
| 2026-05-06 00:42 | 43.55386 | -116.24851 | 4138 ft | 138 kts | 101° |
| 2026-05-06 00:42 | 43.55082 | -116.23562 | 4057 ft | 140 kts | 114° |
| 2026-05-06 00:43 | 43.54594 | -116.22394 | 3997 ft | 135 kts | 122° |
| 2026-05-06 00:43 | 43.54107 | -116.21353 | 3843 ft | 126 kts | 114° |
| 2026-05-06 00:43 | 43.53793 | -116.20324 | 3836 ft | 102 kts | 78° |
| 2026-05-06 00:43 | 43.54042 | -116.19514 | 3721 ft | 86 kts | 30° |
| 2026-05-06 00:44 | 43.54566 | -116.19288 | 3588 ft | 75 kts | 350° |
| 2026-05-06 00:44 | 43.55081 | -116.19598 | 3353 ft | 89 kts | 330° |
| 2026-05-06 00:44 | 43.55537 | -116.20190 | 3126 ft | 91 kts | 311° |
| 2026-05-06 00:44 | 43.55858 | -116.20946 | 2921 ft | 88 kts | 303° |
| 2026-05-06 00:45 | 43.56088 | -116.21610 | 2876 ft | 66 kts | 306° |
| 2026-05-06 00:45 | 43.56235 | -116.22074 | 2876 ft | 27 kts | 273° |